Etusivu
METAR-TAF:

METAR-TAF

Lentoasemat :

Sunanin kansainvälinen lentoasema

Pjongjang, Pohjois-Korea

Leveyspiiri: 39-02N, Pituuspiiri: 125-47E, korkeus merenpinnasta: 36 m

METAR: puuttuu

Aika: 23:11 (14:41 UTC)

Sääennuste

Tämä raportti tehtiin 10 tuntia ja 41 minuuttia sitten, kello 04.00 UTC
Ennuste voimassa 13. päivästä klo 06 UTC - 14. päivään klo 06 UTC
Tuuli 16 kn luoteesta
Näkyvyys: 5000 m
Pilvistä 1700 ft:n korkeudessa
heikkoa sadetta
Tulossa
13. päivästä klo 08 UTC - 13. päivään klo 10 UTC
Tuuli 16 kn luoteesta
Näkyvyys: 6000 m

TAF: ZKPY 130400Z 1306/1406 32008MPS 5000 -RA OVC017 TX10/1306Z TNM04/1321Z BECMG 1308/1310 32008MPS 6000 NSC

Säähavainnot ja -ennusteet yli 4000 lentoasemalta (METAR- ja TAF-raportit).

Käytössä olevat sääasemat on merkitty karttaan keltaisilla ja punaisilla pisteillä.

Aseta hiiri pisteen päälle nähdäksesi sääaseman nimen.

Klikkaa sitten nähdäksesi säähavainnot ja -ennusteet.

Kartan vaihtaminen: klikkaa mustalla rastilla varustettuja vihreitä pisteitä, niin voit zoomata sisään; viivalla varustettua vihreää pistettä, niin voit zoomata ulos tai vihreitä nuolia, niin pääset viereisille kartoille.


METAR-TAF: